createdAt,value
2022-10-28T00:01:20.922Z,102568.96
2022-10-28T00:03:54.122Z,102565.40
2022-10-28T00:06:33.601Z,102565.53
2022-10-28T00:09:01.967Z,102554.05
2022-10-28T00:11:35.961Z,102546.56
2022-10-28T00:14:06.168Z,102535.45
2022-10-28T00:16:38.014Z,102544.41
2022-10-28T00:19:09.375Z,102546.70
2022-10-28T00:21:38.419Z,102542.54
2022-10-28T00:24:07.733Z,102542.54
2022-10-28T00:26:40.319Z,102549.90
2022-10-28T00:29:16.040Z,102539.66
2022-10-28T00:31:44.252Z,102538.78
2022-10-28T00:34:17.685Z,102545.77
2022-10-28T00:36:47.321Z,102540.25
2022-10-28T00:39:23.474Z,102532.11
2022-10-28T00:42:00.215Z,102538.32
2022-10-28T00:45:00.369Z,102541.43
2022-10-28T00:47:42.830Z,102546.43
2022-10-28T00:50:25.081Z,102546.10
2022-10-28T00:52:57.758Z,102536.82
2022-10-28T00:55:27.045Z,102540.48
2022-10-28T00:57:58.771Z,102534.49
2022-10-28T01:00:27.478Z,102536.69
2022-10-28T01:02:56.563Z,102546.23
2022-10-28T01:05:29.077Z,102549.99
2022-10-28T01:08:02.819Z,102541.40
2022-10-28T01:10:53.460Z,102547.94
2022-10-28T01:13:45.678Z,102560.23
2022-10-28T01:16:38.039Z,102557.35
2022-10-28T01:19:23.769Z,102557.22
2022-10-28T01:22:06.483Z,102558.37
2022-10-28T01:25:06.901Z,102549.34
2022-10-28T01:27:43.562Z,102544.27
2022-10-28T01:30:16.103Z,102532.34
2022-10-28T01:33:02.229Z,102532.70
2022-10-28T01:35:47.331Z,102533.84
2022-10-28T01:38:24.432Z,102525.34
2022-10-28T01:41:14.382Z,102515.46
2022-10-28T01:44:05.559Z,102525.24
2022-10-28T01:46:46.554Z,102526.84
2022-10-28T01:49:31.341Z,102526.84
2022-10-28T01:52:04.862Z,102525.24
2022-10-28T01:54:35.151Z,102525.70
2022-10-28T01:57:05.882Z,102525.70
2022-10-28T01:59:35.630Z,102521.87
2022-10-28T02:04:35.756Z,102519.39
2022-10-28T02:07:03.554Z,102504.67
2022-10-28T02:09:51.322Z,102514.32
2022-10-28T02:12:32.702Z,102504.58
2022-10-28T02:15:28.468Z,102503.30
2022-10-28T02:18:14.863Z,102510.20
2022-10-28T02:20:56.386Z,102512.72
2022-10-28T02:23:55.393Z,102509.52
2022-10-28T02:26:29.646Z,102511.12
2022-10-28T02:29:28.049Z,102510.63
2022-10-28T02:32:06.349Z,102511.80
2022-10-28T02:34:39.008Z,102512.48
2022-10-28T02:37:14.383Z,102508.79
2022-10-28T02:39:47.661Z,102515.23
2022-10-28T02:42:21.440Z,102516.38
2022-10-28T02:44:54.068Z,102518.80
2022-10-28T02:47:27.623Z,102510.20
2022-10-28T02:50:01.818Z,102509.71
2022-10-28T02:52:32.835Z,102504.31
2022-10-28T02:55:04.377Z,102510.07
2022-10-28T02:57:43.114Z,102512.00
2022-10-28T03:00:15.926Z,102507.55
2022-10-28T03:02:43.628Z,102504.18
2022-10-28T03:05:11.513Z,102506.60
2022-10-28T03:07:39.179Z,102504.54
2022-10-28T03:10:07.244Z,102511.57
2022-10-28T03:12:34.856Z,102511.90
2022-10-28T03:15:04.250Z,102505.82
2022-10-28T03:17:31.938Z,102519.35
2022-10-28T03:19:59.497Z,102521.41
2022-10-28T03:22:27.205Z,102526.68
2022-10-28T03:24:54.868Z,102534.53
2022-10-28T03:27:22.473Z,102533.71
2022-10-28T03:29:50.124Z,102538.78
2022-10-28T03:32:17.802Z,102537.50
2022-10-28T03:34:45.527Z,102526.13
2022-10-28T03:37:13.325Z,102534.04
2022-10-28T03:39:40.940Z,102527.86
2022-10-28T03:42:08.627Z,102521.77
2022-10-28T03:44:36.254Z,102518.08
2022-10-28T03:47:03.976Z,102518.08
2022-10-28T03:49:31.606Z,102511.57
2022-10-28T03:51:59.232Z,102506.60
2022-10-28T03:54:26.835Z,102506.60
2022-10-28T03:56:54.466Z,102509.16
2022-10-28T03:59:22.082Z,102505.82
2022-10-28T04:01:49.770Z,102507.42
2022-10-28T04:04:17.543Z,102506.14
2022-10-28T04:06:45.166Z,102505.82
2022-10-28T04:09:12.768Z,102507.87
2022-10-28T04:11:40.371Z,102512.03
2022-10-28T04:14:08.033Z,102505.00
2022-10-28T04:16:35.622Z,102504.22
2022-10-28T04:19:03.201Z,102510.98
2022-10-28T04:21:30.823Z,102501.11
2022-10-28T04:23:58.489Z,102502.02
2022-10-28T04:26:26.181Z,102509.02
2022-10-28T04:28:53.802Z,102512.23
2022-10-28T04:31:21.395Z,102511.34
2022-10-28T04:33:49.070Z,102509.58
2022-10-28T04:36:16.672Z,102513.73
2022-10-28T04:38:44.280Z,102504.31
2022-10-28T04:41:15.944Z,102506.05
2022-10-28T04:43:43.587Z,102499.87
2022-10-28T04:46:11.168Z,102506.83
2022-10-28T04:48:38.797Z,102504.90
2022-10-28T04:51:06.634Z,102506.50
2022-10-28T04:53:34.318Z,102500.32
2022-10-28T04:56:02.216Z,102497.45
2022-10-28T04:58:30.043Z,102503.07
2022-10-28T05:00:57.688Z,102511.18
2022-10-28T05:03:25.531Z,102515.34
2022-10-28T05:05:53.247Z,102512.95
2022-10-28T05:08:20.900Z,102509.58
2022-10-28T05:10:51.189Z,102508.47
2022-10-28T05:13:19.588Z,102504.77
2022-10-28T05:15:49.773Z,102507.32
2022-10-28T05:18:17.824Z,102501.70
2022-10-28T05:20:45.495Z,102504.67
2022-10-28T05:23:13.384Z,102496.98
2022-10-28T05:25:41.757Z,102510.52
2022-10-28T05:28:09.395Z,102507.78
2022-10-28T05:30:38.985Z,102504.58
2022-10-28T05:33:06.874Z,102507.09
2022-10-28T05:35:34.615Z,102506.27
2022-10-28T05:38:02.210Z,102499.73
2022-10-28T05:40:30.214Z,102505.82
2022-10-28T05:42:57.860Z,102501.24
2022-10-28T05:45:25.589Z,102494.57
2022-10-28T05:47:54.188Z,102493.66
2022-10-28T05:50:22.905Z,102486.79
2022-10-28T05:52:55.593Z,102484.23
2022-10-28T05:55:26.539Z,102480.45
2022-10-28T05:57:54.482Z,102482.86
2022-10-28T06:00:25.547Z,102487.67
2022-10-28T06:02:53.446Z,102503.17
2022-10-28T06:05:21.796Z,102528.09
2022-10-28T06:07:49.365Z,102540.02
2022-10-28T06:10:17.600Z,102528.91
2022-10-28T06:12:43.710Z,102516.38
2022-10-28T06:15:11.318Z,102529.13
2022-10-28T06:17:38.937Z,102534.85
2022-10-28T06:20:06.934Z,102521.77
2022-10-28T06:22:34.556Z,102513.50
2022-10-28T06:25:02.194Z,102513.41
2022-10-28T06:27:29.810Z,102516.15
2022-10-28T06:29:57.454Z,102512.36
2022-10-28T06:32:25.120Z,102509.84
2022-10-28T06:34:52.767Z,102522.92
2022-10-28T06:37:20.404Z,102539.79
2022-10-28T06:39:52.311Z,102546.01
2022-10-28T06:42:20.293Z,102536.13
2022-10-28T06:44:48.006Z,102542.54
2022-10-28T06:47:17.121Z,102535.90
2022-10-28T06:49:44.752Z,102527.63
2022-10-28T06:52:12.361Z,102535.31
2022-10-28T06:54:40.031Z,102545.52
2022-10-28T06:57:07.754Z,102536.36
2022-10-28T06:59:35.359Z,102537.96
2022-10-28T07:02:03.208Z,102548.95
2022-10-28T07:04:31.037Z,102550.91
2022-10-28T07:06:59.435Z,102553.23
2022-10-28T07:09:27.089Z,102565.40
2022-10-28T07:11:55.478Z,102559.51
2022-10-28T07:14:23.753Z,102556.66
2022-10-28T07:16:51.436Z,102565.53
2022-10-28T07:19:22.513Z,102563.44
2022-10-28T07:21:50.446Z,102561.38
2022-10-28T07:24:18.206Z,102568.24
2022-10-28T07:26:45.873Z,102569.84
2022-10-28T07:29:13.456Z,102559.05
2022-10-28T07:31:41.319Z,102563.86
2022-10-28T07:34:08.955Z,102564.19
2022-10-28T07:36:36.615Z,102567.88
2022-10-28T07:39:04.520Z,102573.18
2022-10-28T07:41:32.123Z,102570.14
2022-10-28T07:43:59.822Z,102577.17
2022-10-28T07:46:27.554Z,102581.65
2022-10-28T07:48:55.229Z,102578.64
2022-10-28T07:51:22.859Z,102574.84
2022-10-28T07:53:50.451Z,102553.49
2022-10-28T07:56:18.148Z,102562.45
2022-10-28T07:58:46.479Z,102562.32
2022-10-28T08:01:17.580Z,102563.44
2022-10-28T08:03:45.840Z,102544.60
2022-10-28T08:06:20.260Z,102542.41
2022-10-28T08:08:49.820Z,102544.01
2022-10-28T08:11:20.287Z,102575.50
2022-10-28T08:13:48.421Z,102591.59
2022-10-28T08:16:16.491Z,102589.40
2022-10-28T08:18:44.163Z,102593.75
2022-10-28T08:21:12.139Z,102596.95
2022-10-28T08:23:40.558Z,102595.35
2022-10-28T08:26:09.322Z,102581.19
2022-10-28T08:28:36.925Z,102605.78
2022-10-28T08:31:10.024Z,102600.38
2022-10-28T08:33:39.220Z,102590.15
2022-10-28T08:36:08.340Z,102597.38
2022-10-28T08:38:36.091Z,102592.44
2022-10-28T08:41:18.116Z,102590.22
2022-10-28T08:44:05.067Z,102592.18
2022-10-28T08:46:48.767Z,102593.29
2022-10-28T08:49:20.696Z,102598.45
2022-10-28T08:51:54.401Z,102598.20
2022-10-28T08:54:28.542Z,102605.23
2022-10-28T08:56:59.805Z,102609.54
2022-10-28T08:59:33.470Z,102604.27
2022-10-28T09:02:06.248Z,102603.33
2022-10-28T09:04:46.098Z,102613.43
2022-10-28T09:07:22.538Z,102604.80
2022-10-28T09:09:52.434Z,102600.32
2022-10-28T09:12:59.149Z,102592.05
2022-10-28T09:18:19.708Z,102585.70
2022-10-28T09:20:54.644Z,102594.04
2022-10-28T09:23:30.976Z,102587.01
2022-10-28T09:26:01.349Z,102589.14
2022-10-28T09:28:57.315Z,102586.13
2022-10-28T09:31:40.319Z,102589.34
2022-10-28T09:34:41.875Z,102582.66
2022-10-28T09:37:19.235Z,102574.23
2022-10-28T09:39:54.204Z,102579.03
2022-10-28T09:42:36.174Z,102577.59
2022-10-28T09:45:07.448Z,102580.54
2022-10-28T09:47:44.903Z,102578.94
2022-10-28T09:50:23.729Z,102575.60
2022-10-28T09:53:02.764Z,102575.11
2022-10-28T09:55:30.610Z,102583.12
2022-10-28T09:57:58.248Z,102583.45
2022-10-28T10:00:26.064Z,102584.92
2022-10-28T10:03:01.128Z,102590.05
2022-10-28T10:05:31.449Z,102595.19
2022-10-28T10:08:04.562Z,102587.38
2022-10-28T10:10:50.509Z,102589.59
2022-10-28T10:13:25.097Z,102579.39
2022-10-28T10:15:57.829Z,102588.05
2022-10-28T10:18:35.621Z,102584.40
2022-10-28T10:21:03.751Z,102587.14
2022-10-28T10:23:36.681Z,102598.00
2022-10-28T10:26:16.847Z,102590.34
2022-10-28T10:28:49.911Z,102584.76
2022-10-28T10:31:21.099Z,102582.37
2022-10-28T10:33:54.763Z,102581.09
2022-10-28T10:36:29.290Z,102588.12
2022-10-28T10:38:57.982Z,102582.07
2022-10-28T10:41:41.541Z,102572.63
2022-10-28T10:44:24.284Z,102578.54
2022-10-28T10:47:05.817Z,102572.76
2022-10-28T10:49:35.468Z,102573.54
2022-10-28T10:52:05.972Z,102575.27
2022-10-28T10:54:35.600Z,102581.71
2022-10-28T10:57:11.784Z,102592.93
2022-10-28T10:59:39.501Z,102576.22
2022-10-28T11:02:35.680Z,102568.83
2022-10-28T11:05:07.551Z,102560.91
2022-10-28T11:07:35.754Z,102559.12
2022-10-28T11:10:03.749Z,102556.38
2022-10-28T11:12:33.144Z,102553.46
2022-10-28T11:15:03.268Z,102540.74
2022-10-28T11:20:27.186Z,102528.77
2022-10-28T11:22:54.994Z,102530.31
2022-10-28T11:25:35.923Z,102530.24
2022-10-28T11:28:09.495Z,102524.42
2022-10-28T11:30:48.990Z,102523.73
2022-10-28T11:33:30.172Z,102526.22
2022-10-28T11:36:10.279Z,102525.86
2022-10-28T11:39:06.918Z,102527.40
2022-10-28T11:42:04.196Z,102516.51
2022-10-28T11:45:08.874Z,102511.15
2022-10-28T11:47:48.419Z,102504.67
2022-10-28T11:50:27.868Z,102494.99
2022-10-28T11:53:07.256Z,102488.81
2022-10-28T11:55:48.822Z,102475.57
2022-10-28T11:58:46.425Z,102468.48
2022-10-28T12:01:16.981Z,102467.98
2022-10-28T12:03:57.183Z,102469.16
2022-10-28T12:06:41.766Z,102474.06
2022-10-28T12:09:32.955Z,102464.74
2022-10-28T12:12:03.321Z,102462.23
2022-10-28T12:15:11.800Z,102461.25
2022-10-28T12:17:44.229Z,102465.23
2022-10-28T12:20:35.495Z,102468.21
2022-10-28T12:23:07.884Z,102461.67
2022-10-28T12:25:40.348Z,102444.96
2022-10-28T12:28:20.702Z,102455.55
2022-10-28T12:30:51.098Z,102456.15
2022-10-28T12:33:24.048Z,102450.13
2022-10-28T12:36:20.294Z,102442.25
2022-10-28T12:39:13.425Z,102436.95
2022-10-28T12:41:53.986Z,102439.63
2022-10-28T12:44:23.564Z,102430.80
2022-10-28T12:47:12.817Z,102441.66
2022-10-28T12:49:50.642Z,102435.94
2022-10-28T12:52:53.544Z,102442.02
2022-10-28T12:55:37.455Z,102435.09
2022-10-28T12:58:07.301Z,102432.11
2022-10-28T13:00:41.462Z,102430.28
2022-10-28T13:03:14.283Z,102425.80
2022-10-28T13:05:53.952Z,102428.19
2022-10-28T13:09:08.506Z,102436.07
2022-10-28T13:11:41.952Z,102437.90
2022-10-28T13:14:28.337Z,102454.48
2022-10-28T13:17:01.784Z,102434.47
2022-10-28T13:19:50.107Z,102438.98
2022-10-28T13:22:30.842Z,102435.09
2022-10-28T13:25:18.999Z,102426.95
2022-10-28T13:27:47.051Z,102430.34
2022-10-28T13:30:20.735Z,102415.30
2022-10-28T13:32:51.669Z,102424.20
2022-10-28T13:35:27.783Z,102428.12
2022-10-28T13:37:57.317Z,102430.48
2022-10-28T13:40:47.855Z,102432.18
2022-10-28T13:43:21.352Z,102425.34
2022-10-28T13:45:50.530Z,102423.55
2022-10-28T13:48:30.168Z,102419.29
2022-10-28T13:51:10.183Z,102414.26
2022-10-28T13:53:42.695Z,102417.69
2022-10-28T13:56:16.236Z,102426.06
2022-10-28T13:58:54.544Z,102422.89
2022-10-28T14:02:01.942Z,102424.69
2022-10-28T14:04:39.701Z,102420.41
2022-10-28T14:07:21.281Z,102424.27
2022-10-28T14:09:53.399Z,102421.29
2022-10-28T14:12:30.883Z,102406.51
2022-10-28T14:15:16.749Z,102425.21
2022-10-28T14:17:50.808Z,102430.41
2022-10-28T14:20:38.901Z,102422.43
2022-10-28T14:23:21.490Z,102425.05
2022-10-28T14:25:52.048Z,102428.65
2022-10-28T14:28:28.784Z,102432.08
2022-10-28T14:31:12.597Z,102426.48
2022-10-28T14:34:05.803Z,102410.34
2022-10-28T14:36:43.963Z,102416.35
2022-10-28T14:39:51.055Z,102427.30
2022-10-28T14:42:28.013Z,102421.74
2022-10-28T14:45:27.475Z,102417.95
2022-10-28T14:48:41.512Z,102405.82
2022-10-28T14:51:15.953Z,102404.61
2022-10-28T14:53:45.600Z,102411.91
2022-10-28T14:56:37.876Z,102412.39
2022-10-28T14:59:24.985Z,102398.46
2022-10-28T15:02:23.325Z,102407.13
2022-10-28T15:05:06.162Z,102409.68
2022-10-28T15:07:37.955Z,102409.68
2022-10-28T15:10:18.636Z,102411.77
2022-10-28T15:12:50.189Z,102415.37
2022-10-28T15:15:31.960Z,102426.36
2022-10-28T15:18:00.864Z,102418.70
2022-10-28T15:20:30.464Z,102429.17
2022-10-28T15:23:17.815Z,102416.68
2022-10-28T15:25:45.694Z,102412.39
2022-10-28T15:28:14.664Z,102416.77
2022-10-28T15:30:46.652Z,102412.49
2022-10-28T15:33:41.629Z,102408.99
2022-10-28T15:36:24.236Z,102412.63
2022-10-28T15:38:53.926Z,102419.06
2022-10-28T15:41:41.605Z,102422.95
2022-10-28T15:44:34.873Z,102418.18
2022-10-28T15:47:18.099Z,102423.87
2022-10-28T15:49:47.544Z,102420.05
2022-10-28T15:52:17.929Z,102425.54
2022-10-28T15:55:26.599Z,102437.28
2022-10-28T15:58:23.578Z,102425.11
2022-10-28T16:00:56.512Z,102417.33
2022-10-28T16:03:48.983Z,102424.10
2022-10-28T16:06:32.454Z,102408.73
2022-10-28T16:09:01.947Z,102399.45
2022-10-28T16:11:31.581Z,102411.51
2022-10-28T16:14:00.264Z,102411.18
2022-10-28T16:16:31.874Z,102406.41
2022-10-28T16:19:11.644Z,102407.36
2022-10-28T16:21:39.827Z,102401.27
2022-10-28T16:24:07.783Z,102400.69
2022-10-28T16:26:35.561Z,102401.14
2022-10-28T16:29:03.256Z,102402.16
2022-10-28T16:31:31.995Z,102406.02
2022-10-28T16:34:00.828Z,102396.27
2022-10-28T16:36:29.601Z,102396.44
2022-10-28T16:38:57.201Z,102407.69
2022-10-28T16:41:25.765Z,102404.80
2022-10-28T16:43:54.056Z,102403.70
2022-10-28T16:46:21.717Z,102407.06
2022-10-28T16:48:49.365Z,102416.71
2022-10-28T16:51:20.468Z,102428.45
2022-10-28T16:53:49.524Z,102425.24
2022-10-28T16:56:18.126Z,102427.53
2022-10-28T16:58:45.864Z,102432.18
2022-10-28T17:01:19.646Z,102421.62
2022-10-28T17:03:47.635Z,102434.14
2022-10-28T17:06:15.255Z,102434.01
2022-10-28T17:09:01.702Z,102433.38
2022-10-28T17:13:58.824Z,102423.31
2022-10-28T17:16:26.589Z,102433.71
2022-10-28T17:18:54.176Z,102438.42
2022-10-28T17:21:21.777Z,102433.91
2022-10-28T17:23:49.412Z,102443.52
2022-10-28T17:26:17.033Z,102444.51
2022-10-28T17:28:44.903Z,102452.05
2022-10-28T17:31:12.684Z,102459.12
2022-10-28T17:33:40.336Z,102457.23
2022-10-28T17:36:09.738Z,102456.41
2022-10-28T17:38:37.415Z,102461.25
2022-10-28T17:41:05.009Z,102460.13
2022-10-28T17:43:32.650Z,102458.99
2022-10-28T17:46:08.595Z,102456.27
2022-10-28T17:48:36.345Z,102459.32
2022-10-28T17:51:04.034Z,102460.01
2022-10-28T17:53:31.658Z,102467.52
2022-10-28T17:56:00.351Z,102464.81
2022-10-28T17:58:28.322Z,102465.43
2022-10-28T18:01:05.200Z,102472.17
2022-10-28T18:03:38.475Z,102466.25
2022-10-28T18:06:08.620Z,102469.29
2022-10-28T18:08:41.143Z,102457.13
2022-10-28T18:11:10.849Z,102468.02
2022-10-28T18:13:40.447Z,102464.52
2022-10-28T18:16:13.860Z,102466.45
2022-10-28T18:18:42.770Z,102472.82
2022-10-28T18:21:14.906Z,102460.66
2022-10-28T18:23:42.480Z,102471.05
2022-10-28T18:26:15.666Z,102469.98
2022-10-28T18:28:45.326Z,102479.56
2022-10-28T18:31:16.931Z,102481.78
2022-10-28T18:33:45.566Z,102475.73
2022-10-28T18:36:19.513Z,102481.95
2022-10-28T18:38:47.583Z,102486.27
2022-10-28T18:41:17.497Z,102479.23
2022-10-28T18:43:45.135Z,102480.64
2022-10-28T18:46:13.461Z,102478.28
2022-10-28T18:48:42.037Z,102473.45
2022-10-28T18:51:12.694Z,102490.41
2022-10-28T18:53:43.359Z,102475.21
2022-10-28T18:56:23.016Z,102472.82
2022-10-28T18:58:52.528Z,102479.36
2022-10-28T19:01:22.790Z,102476.98
2022-10-28T19:03:56.853Z,102478.58
2022-10-28T19:06:25.496Z,102483.52
2022-10-28T19:08:55.024Z,102490.71
2022-10-28T19:11:24.175Z,102482.73
2022-10-28T19:13:51.832Z,102492.64
2022-10-28T19:16:19.420Z,102500.45
2022-10-28T19:18:47.032Z,102494.54
2022-10-28T19:21:16.588Z,102496.95
2022-10-28T19:23:44.747Z,102496.14
2022-10-28T19:26:13.336Z,102494.86
2022-10-28T19:28:43.310Z,102488.16
2022-10-28T19:31:13.508Z,102496.83
2022-10-28T19:33:42.690Z,102492.80
2022-10-28T19:36:19.605Z,102497.74
2022-10-28T19:38:48.939Z,102486.55
2022-10-28T19:41:19.865Z,102495.65
2022-10-28T19:43:49.752Z,102499.80
2022-10-28T19:46:21.463Z,102493.23
2022-10-28T19:48:51.901Z,102503.17
2022-10-28T19:51:25.033Z,102495.62
2022-10-28T19:53:57.784Z,102497.05
2022-10-28T19:56:26.273Z,102491.30
2022-10-28T19:58:57.398Z,102490.97
2022-10-28T20:01:27.429Z,102493.39
2022-10-28T20:03:56.148Z,102493.52
2022-10-28T20:06:26.215Z,102503.92
2022-10-28T20:08:54.296Z,102502.91
2022-10-28T20:11:28.297Z,102501.50
2022-10-28T20:14:04.366Z,102506.57
2022-10-28T20:16:33.421Z,102518.67
2022-10-28T20:19:01.583Z,102514.81
2022-10-28T20:21:31.669Z,102522.10
2022-10-28T20:23:59.396Z,102521.12
2022-10-28T20:26:32.213Z,102527.66
2022-10-28T20:29:01.521Z,102518.90
2022-10-28T20:31:30.758Z,102529.13
2022-10-28T20:34:01.627Z,102532.83
2022-10-28T20:36:36.993Z,102529.95
2022-10-28T20:39:09.877Z,102524.85
2022-10-28T20:41:39.577Z,102524.39
2022-10-28T20:44:08.397Z,102521.38
2022-10-28T20:46:36.823Z,102522.98
2022-10-28T20:49:05.465Z,102514.02
2022-10-28T20:51:34.107Z,102518.99
2022-10-28T20:54:02.082Z,102517.39
2022-10-28T20:56:32.281Z,102522.33
2022-10-28T20:59:00.565Z,102522.82
2022-10-28T21:01:39.529Z,102529.43
2022-10-28T21:04:10.347Z,102524.09
2022-10-28T21:06:39.245Z,102526.35
2022-10-28T21:09:07.104Z,102525.57
2022-10-28T21:11:34.750Z,102521.74
2022-10-28T21:14:02.943Z,102527.66
2022-10-28T21:16:31.687Z,102530.87
2022-10-28T21:19:00.430Z,102524.98
2022-10-28T21:21:28.926Z,102528.34
2022-10-28T21:23:56.628Z,102523.25
2022-10-28T21:26:24.315Z,102523.70
2022-10-28T21:28:53.432Z,102529.95
2022-10-28T21:31:22.082Z,102521.32
2022-10-28T21:36:23.386Z,102517.63
2022-10-28T21:38:55.319Z,102514.29
2022-10-28T21:41:23.777Z,102515.43
2022-10-28T21:43:53.131Z,102518.90
2022-10-28T21:46:21.735Z,102514.09
2022-10-28T21:48:49.968Z,102507.68
2022-10-28T21:51:18.794Z,102514.84
2022-10-28T21:53:46.967Z,102503.49
2022-10-28T21:56:18.789Z,102503.49
2022-10-28T21:58:48.581Z,102506.83
2022-10-28T22:01:21.470Z,102515.40
2022-10-28T22:03:49.458Z,102515.66
2022-10-28T22:06:17.111Z,102528.38
2022-10-28T22:08:44.760Z,102528.51
2022-10-28T22:11:18.386Z,102526.35
2022-10-28T22:13:46.480Z,102527.56
2022-10-28T22:16:18.882Z,102518.27
2022-10-28T22:18:46.938Z,102527.70
2022-10-28T22:21:16.194Z,102534.37
2022-10-28T22:23:44.213Z,102529.03
2022-10-28T22:26:14.891Z,102523.41
2022-10-28T22:28:42.881Z,102523.09
2022-10-28T22:31:13.020Z,102524.33
2022-10-28T22:33:40.880Z,102523.77
2022-10-28T22:36:17.628Z,102528.19
2022-10-28T22:38:45.950Z,102525.44
2022-10-28T22:41:14.840Z,102529.55
2022-10-28T22:43:45.942Z,102525.08
2022-10-28T22:46:16.019Z,102530.48
2022-10-28T22:48:43.976Z,102529.55
2022-10-28T22:51:12.141Z,102533.12
2022-10-28T22:53:40.651Z,102522.88
2022-10-28T22:56:10.416Z,102521.94
2022-10-28T22:58:38.019Z,102522.30
2022-10-28T23:01:17.334Z,102516.22
2022-10-28T23:03:47.180Z,102513.34
2022-10-28T23:06:17.492Z,102509.31
2022-10-28T23:08:46.041Z,102509.80
2022-10-28T23:11:14.815Z,102519.32
2022-10-28T23:13:42.578Z,102528.55
2022-10-28T23:16:15.733Z,102528.74
2022-10-28T23:18:44.914Z,102520.83
2022-10-28T23:21:21.249Z,102524.16
2022-10-28T23:23:54.083Z,102522.56
2022-10-28T23:26:22.105Z,102520.96
2022-10-28T23:28:57.814Z,102514.05
2022-10-28T23:31:26.179Z,102517.06
2022-10-28T23:33:55.295Z,102515.43
2022-10-28T23:36:23.489Z,102506.50
2022-10-28T23:38:51.140Z,102512.95
2022-10-28T23:41:19.451Z,102515.43
2022-10-28T23:43:47.700Z,102506.83
2022-10-28T23:46:15.709Z,102513.05
2022-10-28T23:48:43.549Z,102511.34
2022-10-28T23:51:11.400Z,102510.07
2022-10-28T23:53:39.234Z,102503.40
2022-10-28T23:56:07.481Z,102509.48
2022-10-28T23:58:35.147Z,102500.42
